createdAt,value
2018-07-09T00:01:54.521Z,23.90
2018-07-09T00:11:51.362Z,23.90
2018-07-09T00:16:50.086Z,23.80
2018-07-09T00:19:19.580Z,23.80
2018-07-09T00:24:18.250Z,23.80
2018-07-09T00:26:47.823Z,23.80
2018-07-09T00:31:46.476Z,23.80
2018-07-09T00:34:16.012Z,23.70
2018-07-09T00:39:15.048Z,23.70
2018-07-09T00:41:44.584Z,23.70
2018-07-09T00:46:43.379Z,23.70
2018-07-09T00:56:40.139Z,23.60
2018-07-09T01:04:07.851Z,23.60
2018-07-09T01:09:06.516Z,23.60
2018-07-09T01:16:36.662Z,23.50
2018-07-09T01:19:06.212Z,23.50
2018-07-09T01:29:03.080Z,23.50
2018-07-09T01:34:01.704Z,23.40
2018-07-09T01:36:31.299Z,23.40
2018-07-09T01:46:28.493Z,23.40
2018-07-09T01:51:27.116Z,23.40
2018-07-09T01:53:56.660Z,23.40
2018-07-09T01:58:55.274Z,23.40
2018-07-09T02:01:24.795Z,23.30
2018-07-09T02:06:23.397Z,23.30
2018-07-09T02:08:52.934Z,23.30
2018-07-09T02:13:51.885Z,23.30
2018-07-09T02:16:21.480Z,23.30
2018-07-09T02:21:20.553Z,23.20
2018-07-09T02:28:48.274Z,23.20
2018-07-09T02:33:46.926Z,23.20
2018-07-09T02:38:45.534Z,23.10
2018-07-09T02:46:13.233Z,23.10
2018-07-09T02:51:11.911Z,23.10
2018-07-09T02:53:41.468Z,23.10
2018-07-09T03:03:38.303Z,23.10
2018-07-09T03:06:07.851Z,23.10
2018-07-09T03:16:05.469Z,23.00
2018-07-09T03:18:35.464Z,23.00
2018-07-09T03:26:03.289Z,23.00
2018-07-09T03:33:31.656Z,23.00
2018-07-09T03:38:30.308Z,22.90
2018-07-09T03:40:59.840Z,22.90
2018-07-09T03:50:56.835Z,22.90
2018-07-09T03:53:26.382Z,22.90
2018-07-09T03:55:55.928Z,22.90
2018-07-09T04:03:23.677Z,22.80
2018-07-09T04:08:22.319Z,22.90
2018-07-09T04:10:51.890Z,22.80
2018-07-09T04:13:21.424Z,22.80
2018-07-09T04:15:51.005Z,22.80
2018-07-09T04:23:24.811Z,22.80
2018-07-09T04:25:54.355Z,22.80
2018-07-09T04:35:51.450Z,22.70
2018-07-09T04:43:19.200Z,22.70
2018-07-09T04:45:49.108Z,22.70
2018-07-09T04:48:18.646Z,22.70
2018-07-09T04:50:48.210Z,22.80
2018-07-09T04:53:17.730Z,22.70
2018-07-09T04:58:16.336Z,22.70
2018-07-09T05:05:44.718Z,22.70
2018-07-09T05:08:14.569Z,22.70
2018-07-09T05:13:13.196Z,22.70
2018-07-09T05:18:11.805Z,22.70
2018-07-09T05:20:41.387Z,22.70
2018-07-09T05:30:38.125Z,22.70
2018-07-09T05:33:07.661Z,22.70
2018-07-09T05:35:37.190Z,22.70
2018-07-09T05:38:06.769Z,22.80
2018-07-09T05:40:36.301Z,22.70
2018-07-09T05:53:03.769Z,22.80
2018-07-09T05:55:33.343Z,22.90
2018-07-09T06:00:32.076Z,22.90
2018-07-09T06:03:01.636Z,22.90
2018-07-09T06:08:00.469Z,22.80
2018-07-09T06:20:26.394Z,23.00
2018-07-09T06:30:23.158Z,23.00
2018-07-09T06:32:52.722Z,23.00
2018-07-09T06:35:22.581Z,23.00
2018-07-09T06:40:21.292Z,23.00
2018-07-09T06:47:49.004Z,23.10
2018-07-09T06:52:47.733Z,23.10
2018-07-09T07:00:15.922Z,22.80
2018-07-09T07:05:15.057Z,23.10
2018-07-09T07:07:44.644Z,23.20
2018-07-09T07:10:14.188Z,23.40
2018-07-09T07:15:12.792Z,23.60
2018-07-09T07:17:42.349Z,23.60
2018-07-09T07:27:39.305Z,23.60
2018-07-09T07:30:08.850Z,23.70
2018-07-09T07:40:05.840Z,22.70
2018-07-09T07:42:35.375Z,23.00
2018-07-09T07:47:34.162Z,23.40
2018-07-09T07:55:02.272Z,23.60
2018-07-09T08:00:00.892Z,23.60
2018-07-09T08:13:27.717Z,23.60
2018-07-09T08:14:56.329Z,23.60
2018-07-09T08:24:53.283Z,23.60
2018-07-09T08:29:51.940Z,23.60
2018-07-09T08:32:21.511Z,23.60
2018-07-09T08:34:51.051Z,23.50
2018-07-09T08:37:20.621Z,23.50
2018-07-09T08:39:50.163Z,23.50
2018-07-09T08:42:19.725Z,23.50
2018-07-09T08:44:49.283Z,23.50
2018-07-09T08:47:18.889Z,23.50
2018-07-09T08:54:46.574Z,23.50
2018-07-09T09:02:14.853Z,23.50
2018-07-09T09:07:13.532Z,23.40
2018-07-09T09:12:12.191Z,23.40
2018-07-09T09:19:39.889Z,23.40
2018-07-09T09:24:38.552Z,23.40
2018-07-09T09:32:06.291Z,23.40
2018-07-09T09:34:35.855Z,23.40
2018-07-09T09:37:05.423Z,23.40
2018-07-09T09:39:36.599Z,23.40
2018-07-09T09:42:06.845Z,23.30
2018-07-09T09:47:05.953Z,23.30
2018-07-09T09:49:35.503Z,23.30
2018-07-09T09:54:34.106Z,23.30
2018-07-09T09:57:03.641Z,23.30
2018-07-09T10:02:02.284Z,23.30
2018-07-09T10:09:30.804Z,23.30
2018-07-09T10:14:29.401Z,23.30
2018-07-09T10:16:59.047Z,23.30
2018-07-09T10:21:57.752Z,23.30
2018-07-09T10:24:27.289Z,23.30
2018-07-09T10:29:25.888Z,23.30
2018-07-09T10:34:24.483Z,23.30
2018-07-09T10:36:54.048Z,23.40
2018-07-09T10:54:18.908Z,23.40
2018-07-09T10:59:17.523Z,23.40
2018-07-09T11:04:16.124Z,23.50
2018-07-09T11:09:14.796Z,23.50
2018-07-09T11:11:44.329Z,23.50
2018-07-09T11:16:43.381Z,23.50
2018-07-09T11:26:40.722Z,23.60
2018-07-09T11:31:39.337Z,23.60
2018-07-09T11:34:08.888Z,23.60
2018-07-09T11:39:07.642Z,23.50
2018-07-09T11:41:37.480Z,23.50
2018-07-09T11:51:34.529Z,23.50
2018-07-09T11:54:04.083Z,23.60
2018-07-09T11:59:02.769Z,23.60
2018-07-09T12:01:32.195Z,23.60
2018-07-09T12:06:30.922Z,23.60
2018-07-09T12:13:58.836Z,23.60
2018-07-09T12:16:28.350Z,23.60
2018-07-09T12:23:56.138Z,23.70
2018-07-09T12:28:54.830Z,23.70
2018-07-09T12:31:24.393Z,23.70
2018-07-09T12:33:53.927Z,23.70
2018-07-09T12:38:52.576Z,23.70
2018-07-09T12:43:51.618Z,23.70
2018-07-09T12:46:21.166Z,23.70
2018-07-09T12:51:19.820Z,23.70
2018-07-09T12:56:18.408Z,23.70
2018-07-09T13:03:46.118Z,23.70
2018-07-09T13:08:45.428Z,23.70
2018-07-09T13:16:13.186Z,23.70
2018-07-09T13:18:42.688Z,23.70
2018-07-09T13:28:39.601Z,23.80
2018-07-09T13:31:09.141Z,23.90
2018-07-09T13:36:08.352Z,23.90
2018-07-09T13:41:06.957Z,23.90
2018-07-09T13:43:36.493Z,23.90
2018-07-09T13:46:06.052Z,23.90
2018-07-09T13:51:04.636Z,23.90
2018-07-09T13:53:34.218Z,23.90
2018-07-09T13:58:32.863Z,23.80
2018-07-09T14:01:02.396Z,23.80
2018-07-09T14:03:31.964Z,23.80
2018-07-09T14:10:59.702Z,23.90
2018-07-09T14:15:58.319Z,23.80
2018-07-09T14:18:27.863Z,23.90
2018-07-09T14:28:24.706Z,23.90
2018-07-09T14:33:23.302Z,23.80
2018-07-09T14:35:52.919Z,23.30
2018-07-09T14:38:22.484Z,23.30
2018-07-09T14:40:52.078Z,23.40
2018-07-09T14:48:19.751Z,23.50
2018-07-09T14:50:49.318Z,23.50
2018-07-09T14:55:48.224Z,23.60
2018-07-09T14:58:17.771Z,23.60
2018-07-09T15:08:14.749Z,23.60
2018-07-09T15:41:03.950Z,23.90
2018-07-09T15:43:43.537Z,23.90
2018-07-09T15:46:13.062Z,23.90
2018-07-09T15:48:42.620Z,23.90
2018-07-09T15:58:39.637Z,23.90
2018-07-09T16:03:38.299Z,23.40
2018-07-09T16:11:06.322Z,23.40
2018-07-09T16:13:35.945Z,23.50
2018-07-09T16:18:34.723Z,23.60
2018-07-09T16:23:33.482Z,23.60
2018-07-09T16:33:31.709Z,23.70
2018-07-09T16:36:01.705Z,23.60
2018-07-09T16:43:29.954Z,23.60
2018-07-09T16:45:59.557Z,23.60
2018-07-09T16:48:29.182Z,23.60
2018-07-09T16:50:58.721Z,23.60
2018-07-09T16:53:28.267Z,23.60
2018-07-09T16:58:26.997Z,23.60
2018-07-09T17:05:54.917Z,23.50
2018-07-09T17:23:19.609Z,23.40
2018-07-09T17:38:14.598Z,23.40
2018-07-09T17:43:13.251Z,23.40
2018-07-09T17:45:43.045Z,23.40
2018-07-09T17:50:41.894Z,23.40
2018-07-09T17:53:12.213Z,23.40
2018-07-09T17:55:41.793Z,23.40
2018-07-09T17:58:11.358Z,23.40
2018-07-09T18:08:09.034Z,23.30
2018-07-09T18:10:38.604Z,23.30
2018-07-09T18:15:37.274Z,23.30
2018-07-09T18:20:37.451Z,23.30
2018-07-09T18:28:05.549Z,23.30
2018-07-09T18:33:04.280Z,23.30
2018-07-09T18:35:34.672Z,23.30
2018-07-09T18:38:04.135Z,23.30
2018-07-09T18:45:31.892Z,23.20
2018-07-09T18:55:28.822Z,23.20
2018-07-09T19:00:27.481Z,23.20
2018-07-09T19:02:57.016Z,23.20
2018-07-09T19:08:00.551Z,23.10
2018-07-09T19:15:28.252Z,23.10
2018-07-09T19:23:11.563Z,23.00
2018-07-09T19:25:40.130Z,23.10
2018-07-09T19:30:37.340Z,23.10
2018-07-09T19:40:32.238Z,23.00
2018-07-09T19:43:00.809Z,23.00
2018-07-09T19:50:26.602Z,22.90
2018-07-09T19:55:23.802Z,22.90
2018-07-09T20:02:49.594Z,22.90
2018-07-09T20:10:21.136Z,22.90
2018-07-09T20:15:29.353Z,22.90
2018-07-09T20:17:57.920Z,22.80
2018-07-09T20:20:26.487Z,22.80
2018-07-09T20:22:55.389Z,22.80
2018-07-09T20:27:52.624Z,22.80
2018-07-09T20:30:21.158Z,22.80
2018-07-09T20:35:18.547Z,22.80
2018-07-09T20:37:47.109Z,22.80
2018-07-09T20:50:11.338Z,22.70
2018-07-09T20:52:39.913Z,22.70
2018-07-09T21:02:34.313Z,22.60
2018-07-09T21:22:23.143Z,22.50
2018-07-09T21:24:51.733Z,22.50
2018-07-09T21:27:20.312Z,22.60
2018-07-09T21:34:46.563Z,22.50
2018-07-09T21:42:12.561Z,22.50
2018-07-09T21:44:41.124Z,22.40
2018-07-09T21:52:07.838Z,22.40
